Time;durP1;ratioP1;P1;durP2;ratioP2;P2;SDS_P1;SDS_P2;PMS_P1;PMS_P2;Temp;Humidity;BMP_temperature;BMP_pressure;BME280_temperature;BME280_humidity;BME280_pressure;Samples;Min_cycle;Max_cycle;Signal;HPM_P1;HPM_P2
2022/06/29 00:00:22;;;;;;;1.83;1.27;;;12.50;59.20;;;;;;4917080;29;20263;-49
2022/06/29 00:02:53;;;;;;;1.98;1.60;;;12.50;59.20;;;;;;4917406;29;20199;-49
2022/06/29 00:05:25;;;;;;;1.92;1.60;;;12.50;59.20;;;;;;4913765;29;20208;-50
2022/06/29 00:07:57;;;;;;;1.70;1.33;;;12.50;59.30;;;;;;4879983;29;20202;-48
2022/06/29 00:10:28;;;;;;;1.45;1.35;;;12.50;59.30;;;;;;4884180;29;20209;-50
2022/06/29 00:12:58;;;;;;;1.73;1.50;;;12.50;59.20;;;;;;4907076;29;20205;-48
2022/06/29 00:15:31;;;;;;;1.92;1.70;;;12.50;59.20;;;;;;4897612;29;20800;-49
2022/06/29 00:18:02;;;;;;;1.80;1.40;;;12.60;59.40;;;;;;4879500;29;20213;-50
2022/06/29 00:20:33;;;;;;;1.70;1.60;;;12.60;59.30;;;;;;4879271;29;20209;-50
2022/06/29 00:23:03;;;;;;;1.77;1.25;;;12.60;59.40;;;;;;4879980;29;20700;-49
2022/06/29 00:25:34;;;;;;;1.98;1.73;;;12.60;59.40;;;;;;4884182;29;20236;-49
2022/06/29 00:28:05;;;;;;;2.00;1.80;;;12.60;59.40;;;;;;4917237;29;20208;-49
2022/06/29 00:30:38;;;;;;;3.03;1.60;;;12.70;59.50;;;;;;4916972;29;20196;-51
2022/06/29 00:33:08;;;;;;;1.85;1.67;;;12.60;59.50;;;;;;4916974;29;20204;-49
2022/06/29 00:35:39;;;;;;;2.08;1.88;;;12.70;59.60;;;;;;4910333;29;20220;-50
2022/06/29 00:38:10;;;;;;;2.17;1.70;;;12.70;59.60;;;;;;4895734;29;20193;-50
2022/06/29 00:40:40;;;;;;;2.25;1.67;;;12.70;59.60;;;;;;4900070;29;20203;-49
2022/06/29 00:43:11;;;;;;;2.08;1.88;;;12.70;59.70;;;;;;4903843;29;20213;-49
2022/06/29 00:45:44;;;;;;;2.20;1.55;;;12.70;59.70;;;;;;4898816;29;20228;-49
2022/06/29 00:48:14;;;;;;;2.33;2.10;;;12.70;59.80;;;;;;4897204;29;20215;-48
2022/06/29 00:50:47;;;;;;;2.83;1.83;;;12.80;59.90;;;;;;4897541;29;20197;-48
2022/06/29 00:53:19;;;;;;;2.10;1.70;;;12.80;59.90;;;;;;4896812;29;20208;-50
2022/06/29 00:55:52;;;;;;;2.72;1.88;;;12.80;59.90;;;;;;4896433;29;20217;-48
2022/06/29 00:58:25;;;;;;;2.10;1.85;;;12.80;59.80;;;;;;4896442;29;20200;-50
2022/06/29 01:01:03;;;;;;;2.00;1.70;;;12.80;59.70;;;;;;4897121;29;20200;-48
2022/06/29 01:03:34;;;;;;;2.55;2.08;;;12.80;59.90;;;;;;4896462;29;20212;-49
2022/06/29 01:06:05;;;;;;;2.63;2.13;;;12.90;60.10;;;;;;4896379;29;20239;-51
2022/06/29 01:08:36;;;;;;;2.90;2.13;;;12.90;60.20;;;;;;4895797;29;20205;-50
2022/06/29 01:11:07;;;;;;;2.50;2.30;;;13.00;60.20;;;;;;4897209;29;20208;-48
2022/06/29 01:13:38;;;;;;;2.83;2.58;;;13.00;60.20;;;;;;4896560;29;20212;-50
2022/06/29 01:16:11;;;;;;;2.47;2.05;;;13.00;60.30;;;;;;4898466;29;20217;-51
2022/06/29 01:18:41;;;;;;;2.65;2.30;;;13.00;60.30;;;;;;4897853;29;20201;-52
2022/06/29 01:21:13;;;;;;;2.75;2.50;;;13.00;60.30;;;;;;4897906;29;20197;-52
2022/06/29 01:23:45;;;;;;;2.58;2.38;;;13.10;60.40;;;;;;4898591;29;20232;-52
2022/06/29 01:26:16;;;;;;;3.25;2.70;;;13.10;60.40;;;;;;4898438;29;20243;-53
2022/06/29 01:28:48;;;;;;;2.63;2.30;;;13.10;60.30;;;;;;4897096;29;20197;-49
2022/06/29 01:31:20;;;;;;;3.03;2.33;;;13.10;60.40;;;;;;4896612;29;21278;-52
2022/06/29 01:33:52;;;;;;;3.88;2.35;;;13.10;60.30;;;;;;4896267;29;20209;-47
2022/06/29 01:36:22;;;;;;;2.67;2.38;;;13.10;60.30;;;;;;4896246;29;20209;-52
2022/06/29 01:38:55;;;;;;;3.72;2.60;;;13.10;60.20;;;;;;4897508;29;20224;-49
2022/06/29 01:41:26;;;;;;;3.40;2.78;;;13.20;60.30;;;;;;4895983;29;20673;-50
2022/06/29 01:43:57;;;;;;;3.10;2.35;;;13.20;60.30;;;;;;4898216;29;20212;-50
2022/06/29 01:46:27;;;;;;;3.00;2.72;;;13.20;60.20;;;;;;4896281;29;20227;-51
2022/06/29 01:48:58;;;;;;;2.83;2.30;;;13.20;60.00;;;;;;4896313;29;20211;-50
2022/06/29 01:51:33;;;;;;;3.75;3.00;;;13.30;60.10;;;;;;4896112;29;20234;-51
2022/06/29 01:54:05;;;;;;;3.75;3.00;;;13.30;60.00;;;;;;4896613;29;20204;-51
2022/06/29 01:59:23;;;;;;;3.95;3.00;;;13.30;60.10;;;;;;4895302;29;20227;-48
2022/06/29 02:01:54;;;;;;;4.15;3.05;;;13.30;60.20;;;;;;4896480;29;20207;-50
2022/06/29 02:04:25;;;;;;;4.35;3.40;;;13.40;60.30;;;;;;4896368;29;20203;-54
2022/06/29 02:07:05;;;;;;;4.10;3.05;;;13.40;60.30;;;;;;4896329;29;20204;-49
2022/06/29 02:09:37;;;;;;;4.82;3.33;;;13.40;60.30;;;;;;4895979;29;20226;-51
2022/06/29 02:12:09;;;;;;;5.03;3.55;;;13.40;60.20;;;;;;4895900;29;20203;-52
2022/06/29 02:14:39;;;;;;;4.93;3.00;;;13.40;60.20;;;;;;4896199;29;20220;-51
2022/06/29 02:17:11;;;;;;;4.45;3.20;;;13.40;60.20;;;;;;4895931;29;20201;-51
2022/06/29 02:19:42;;;;;;;4.75;3.53;;;13.50;60.20;;;;;;4896167;29;20324;-50
2022/06/29 02:22:12;;;;;;;4.20;3.33;;;13.50;60.10;;;;;;4895617;29;20658;-51
2022/06/29 02:24:45;;;;;;;3.67;3.35;;;13.50;60.00;;;;;;4896223;29;20224;-53
2022/06/29 02:27:15;;;;;;;3.92;3.08;;;13.50;60.00;;;;;;4895520;29;20200;-49
2022/06/29 02:30:04;;;;;;;4.18;3.22;;;13.60;60.00;;;;;;4896381;29;20221;-52
2022/06/29 02:35:39;;;;;;;5.35;3.13;;;13.60;59.80;;;;;;4896291;29;20223;-51
2022/06/29 02:40:58;;;;;;;4.68;3.38;;;13.60;59.80;;;;;;4895495;29;20585;-54
2022/06/29 02:43:29;;;;;;;4.43;3.08;;;13.70;59.80;;;;;;4895828;29;20692;-51
2022/06/29 02:46:00;;;;;;;3.25;2.75;;;13.70;59.70;;;;;;4895820;29;20227;-51
2022/06/29 02:48:32;;;;;;;3.33;2.80;;;13.70;59.80;;;;;;4895943;29;20213;-51
2022/06/29 02:51:04;;;;;;;4.63;3.35;;;13.70;59.80;;;;;;4896088;29;20253;-50
2022/06/29 02:53:34;;;;;;;3.45;3.10;;;13.70;59.80;;;;;;4917521;29;20215;-48
2022/06/29 02:56:07;;;;;;;5.07;3.15;;;13.70;59.80;;;;;;4918595;29;20224;-52
2022/06/29 02:58:38;;;;;;;5.28;3.50;;;13.70;59.80;;;;;;4918732;29;20196;-50
2022/06/29 03:01:09;;;;;;;4.78;3.60;;;13.80;59.90;;;;;;4917443;29;20326;-50
2022/06/29 03:03:39;;;;;;;4.68;3.55;;;13.80;59.90;;;;;;4917973;29;20530;-51
2022/06/29 03:06:10;;;;;;;3.58;3.28;;;13.80;59.90;;;;;;4918191;29;20231;-52
2022/06/29 03:08:41;;;;;;;3.85;3.40;;;13.80;59.80;;;;;;4917839;29;20204;-50
2022/06/29 03:11:14;;;;;;;3.97;3.30;;;13.80;59.90;;;;;;4917311;29;20212;-50
2022/06/29 03:13:45;;;;;;;3.88;3.10;;;13.80;59.80;;;;;;4918344;29;20207;-51
2022/06/29 03:16:15;;;;;;;4.00;3.58;;;13.80;59.70;;;;;;4912223;29;20225;-51
2022/06/29 03:18:46;;;;;;;4.30;3.05;;;13.80;59.70;;;;;;4880793;29;20198;-50
2022/06/29 03:21:17;;;;;;;4.30;3.65;;;13.90;59.70;;;;;;4880151;29;20229;-51
2022/06/29 03:23:47;;;;;;;4.53;3.53;;;13.90;59.70;;;;;;4893967;29;20672;-52
2022/06/29 03:26:20;;;;;;;4.78;3.55;;;13.90;59.70;;;;;;4898551;29;20224;-50
2022/06/29 03:28:52;;;;;;;4.40;3.40;;;13.90;59.70;;;;;;4880209;29;20197;-50
2022/06/29 03:31:29;;;;;;;5.05;3.33;;;13.90;59.70;;;;;;4889321;29;20646;-53
2022/06/29 03:34:00;;;;;;;3.97;3.05;;;13.90;59.70;;;;;;4898518;29;20201;-52
2022/06/29 03:36:30;;;;;;;4.13;3.35;;;14.00;59.80;;;;;;4899121;29;20224;-50
2022/06/29 03:39:07;;;;;;;3.75;3.10;;;14.00;59.80;;;;;;4898665;29;20224;-50
2022/06/29 03:41:44;;;;;;;4.13;3.35;;;14.00;59.80;;;;;;4898356;29;20565;-50
2022/06/29 03:44:15;;;;;;;5.07;3.80;;;14.00;59.80;;;;;;4897912;29;20467;-50
2022/06/29 03:46:46;;;;;;;4.60;3.25;;;14.00;59.80;;;;;;4898350;29;20201;-51
2022/06/29 03:49:16;;;;;;;4.07;3.50;;;14.00;59.80;;;;;;4898043;29;20201;-51
2022/06/29 03:51:47;;;;;;;4.20;3.42;;;14.10;59.80;;;;;;4900465;29;20224;-51
2022/06/29 03:54:18;;;;;;;4.03;3.28;;;14.10;59.80;;;;;;4917199;29;20212;-54
2022/06/29 03:56:50;;;;;;;4.03;3.17;;;14.10;59.80;;;;;;4917119;29;20215;-54
2022/06/29 03:59:21;;;;;;;4.18;3.70;;;14.10;59.80;;;;;;4899012;29;20201;-51
2022/06/29 04:01:52;;;;;;;4.03;3.22;;;14.10;59.70;;;;;;4899910;29;20201;-54
2022/06/29 04:04:23;;;;;;;4.32;3.30;;;14.20;59.70;;;;;;4898887;29;20200;-54
2022/06/29 04:06:53;;;;;;;3.53;3.10;;;14.20;59.70;;;;;;4900245;29;20201;-53
2022/06/29 04:09:24;;;;;;;5.10;3.58;;;14.20;59.70;;;;;;4899858;29;20204;-47
2022/06/29 04:11:57;;;;;;;4.70;3.42;;;14.20;59.60;;;;;;4898626;29;20201;-49
2022/06/29 04:14:28;;;;;;;3.53;3.03;;;14.30;59.70;;;;;;4897463;29;20201;-47
2022/06/29 04:16:59;;;;;;;3.85;3.17;;;14.30;59.60;;;;;;4898182;29;20669;-50
2022/06/29 04:19:30;;;;;;;3.65;3.25;;;14.30;59.60;;;;;;4897639;29;20193;-51
2022/06/29 04:22:02;;;;;;;3.50;3.05;;;14.30;59.60;;;;;;4898997;29;20227;-48
2022/06/29 04:24:32;;;;;;;5.13;3.50;;;14.30;59.60;;;;;;4897798;29;20208;-49
2022/06/29 04:27:06;;;;;;;4.85;3.55;;;14.40;60.20;;;;;;4897320;29;20250;-51
2022/06/29 04:29:36;;;;;;;5.13;3.40;;;14.30;59.50;;;;;;4897050;29;20201;-49
2022/06/29 04:32:07;;;;;;;4.50;3.58;;;14.40;59.60;;;;;;4897067;29;20653;-48
2022/06/29 04:34:38;;;;;;;3.45;3.15;;;14.40;59.60;;;;;;4897641;29;20221;-48
2022/06/29 04:37:12;;;;;;;3.70;3.10;;;14.40;59.60;;;;;;4898012;29;20261;-49
2022/06/29 04:39:43;;;;;;;3.75;3.20;;;14.40;59.50;;;;;;4897988;29;20220;-50
2022/06/29 04:42:16;;;;;;;4.53;3.55;;;14.40;59.50;;;;;;4897935;29;20204;-50
2022/06/29 04:44:46;;;;;;;4.20;3.17;;;14.40;60.10;;;;;;4897755;29;20716;-51
2022/06/29 04:47:17;;;;;;;4.80;3.30;;;14.40;59.40;;;;;;4897293;29;20669;-48
2022/06/29 04:49:48;;;;;;;3.95;2.90;;;14.40;59.50;;;;;;4906364;29;20200;-46
2022/06/29 04:52:18;;;;;;;4.25;3.38;;;14.40;59.40;;;;;;4916088;29;20215;-49
2022/06/29 04:54:49;;;;;;;3.97;3.05;;;14.40;59.40;;;;;;4916321;29;20220;-49
2022/06/29 04:57:22;;;;;;;4.82;3.45;;;14.40;59.40;;;;;;4916062;29;20657;-47
2022/06/29 04:59:52;;;;;;;4.50;3.53;;;14.40;59.40;;;;;;4916433;29;20203;-47
2022/06/29 05:02:23;;;;;;;4.13;3.08;;;14.40;59.40;;;;;;4916775;29;20208;-48
2022/06/29 05:04:54;;;;;;;3.40;3.10;;;14.40;59.40;;;;;;4915749;29;20692;-48
2022/06/29 05:07:24;;;;;;;3.70;3.20;;;14.40;59.40;;;;;;4916375;29;20212;-49
2022/06/29 05:09:55;;;;;;;3.67;3.20;;;14.40;59.40;;;;;;4915754;29;20200;-47
2022/06/29 05:12:28;;;;;;;4.57;3.40;;;14.40;59.30;;;;;;4915848;29;20204;-49
2022/06/29 05:14:58;;;;;;;4.38;3.40;;;14.40;59.30;;;;;;4915471;29;20220;-48
2022/06/29 05:17:36;;;;;;;3.28;2.95;;;14.30;59.20;;;;;;4900740;29;20205;-48
2022/06/29 05:20:08;;;;;;;4.22;3.10;;;14.30;59.20;;;;;;4901639;29;20223;-48
2022/06/29 05:22:38;;;;;;;4.00;3.10;;;14.30;59.20;;;;;;4916016;29;20207;-49
2022/06/29 05:25:10;;;;;;;4.03;3.10;;;14.30;59.20;;;;;;4916270;29;20655;-50
2022/06/29 05:27:42;;;;;;;4.32;3.30;;;14.30;59.20;;;;;;4916351;29;20208;-49
2022/06/29 05:30:13;;;;;;;4.10;3.22;;;14.30;59.30;;;;;;4915845;29;20574;-48
2022/06/29 05:32:45;;;;;;;4.00;3.30;;;14.30;59.40;;;;;;4915819;29;20204;-48
2022/06/29 05:35:15;;;;;;;4.72;3.17;;;14.30;59.40;;;;;;4915148;29;20215;-49
2022/06/29 05:37:46;;;;;;;4.00;3.13;;;14.30;59.40;;;;;;4915941;29;20208;-50
2022/06/29 05:40:17;;;;;;;4.15;3.28;;;14.20;59.40;;;;;;4898995;29;20701;-47
2022/06/29 05:42:51;;;;;;;4.18;3.38;;;14.20;59.30;;;;;;4896631;29;20251;-49
2022/06/29 05:45:22;;;;;;;4.07;3.20;;;14.20;59.40;;;;;;4905240;29;20228;-49
2022/06/29 05:47:52;;;;;;;4.03;3.47;;;14.20;59.40;;;;;;4895754;29;20692;-49
2022/06/29 05:50:23;;;;;;;4.07;3.13;;;14.20;59.40;;;;;;4895854;29;20232;-49
2022/06/29 05:52:54;;;;;;;3.80;3.40;;;14.20;59.40;;;;;;4896301;29;20669;-49
2022/06/29 05:55:25;;;;;;;3.67;3.17;;;14.20;59.40;;;;;;4896567;29;20222;-51
2022/06/29 05:57:57;;;;;;;3.47;3.10;;;14.20;59.40;;;;;;4895845;29;20192;-48
2022/06/29 06:00:28;;;;;;;3.90;3.50;;;14.20;59.40;;;;;;4896116;29;20381;-49
2022/06/29 06:02:58;;;;;;;4.63;3.47;;;14.10;59.40;;;;;;4896344;29;20215;-48
2022/06/29 06:05:29;;;;;;;4.60;3.67;;;14.10;59.40;;;;;;4895685;29;20228;-50
2022/06/29 06:08:00;;;;;;;4.97;3.45;;;14.10;59.40;;;;;;4896584;29;20288;-49
2022/06/29 06:10:30;;;;;;;3.42;3.13;;;14.10;59.40;;;;;;4896059;29;20205;-49
2022/06/29 06:13:05;;;;;;;4.45;3.72;;;14.10;59.40;;;;;;4895822;29;20565;-48
2022/06/29 06:15:36;;;;;;;4.22;3.40;;;14.00;59.40;;;;;;4895622;29;20226;-49
2022/06/29 06:18:07;;;;;;;3.17;2.88;;;14.00;59.40;;;;;;4896091;29;20205;-48
2022/06/29 06:20:37;;;;;;;3.58;3.28;;;14.00;59.40;;;;;;4894700;29;20224;-49
2022/06/29 06:23:08;;;;;;;3.55;3.17;;;14.00;59.50;;;;;;4895998;29;20219;-49
2022/06/29 06:25:39;;;;;;;3.25;2.95;;;14.00;59.70;;;;;;4895866;29;20221;-50
2022/06/29 06:28:12;;;;;;;3.63;3.33;;;14.10;59.90;;;;;;4895243;29;20563;-47
2022/06/29 06:30:42;;;;;;;8.60;5.15;;;14.00;59.70;;;;;;4895566;29;20650;-49
2022/06/29 06:33:13;;;;;;;4.28;3.60;;;14.00;59.80;;;;;;4895809;29;20201;-50
2022/06/29 06:35:49;;;;;;;5.22;3.85;;;14.00;59.70;;;;;;4895721;29;20221;-50
2022/06/29 06:38:20;;;;;;;5.07;3.70;;;14.00;59.70;;;;;;4894590;29;20208;-52
2022/06/29 06:43:39;;;;;;;4.85;3.97;;;14.00;59.60;;;;;;4920998;23;20234;-45
2022/06/29 06:46:09;;;;;;;4.07;3.50;;;13.90;59.50;;;;;;4910377;29;20235;-45
2022/06/29 06:48:40;;;;;;;5.57;3.72;;;13.90;59.50;;;;;;4896453;29;20661;-45
2022/06/29 06:51:11;;;;;;;6.32;3.70;;;13.90;59.50;;;;;;4895903;29;20657;-45
2022/06/29 06:53:42;;;;;;;4.18;3.50;;;13.90;59.50;;;;;;4896163;29;20661;-45
2022/06/29 06:56:13;;;;;;;3.80;3.08;;;13.90;59.50;;;;;;4900115;29;20215;-45
2022/06/29 06:58:45;;;;;;;6.32;3.65;;;13.90;59.50;;;;;;4914931;29;20208;-43
2022/06/29 07:01:16;;;;;;;4.28;3.58;;;13.80;59.40;;;;;;4914996;29;20227;-44
2022/06/29 07:03:48;;;;;;;4.18;3.20;;;13.80;59.30;;;;;;4914630;29;20260;-45
2022/06/29 07:06:19;;;;;;;5.15;3.47;;;13.80;59.30;;;;;;4914510;29;20712;-45
2022/06/29 07:08:49;;;;;;;5.07;3.53;;;13.80;59.40;;;;;;4914758;29;20211;-45
2022/06/29 07:11:20;;;;;;;4.25;3.60;;;13.80;59.30;;;;;;4914622;29;20196;-44
2022/06/29 07:13:53;;;;;;;3.53;3.22;;;13.80;59.30;;;;;;4914999;29;20200;-45
2022/06/29 07:16:23;;;;;;;5.05;3.28;;;13.80;59.30;;;;;;4908467;29;20229;-44
2022/06/29 07:18:55;;;;;;;4.93;3.08;;;13.80;59.30;;;;;;4896080;29;20626;-44
2022/06/29 07:21:26;;;;;;;5.75;3.15;;;13.80;59.20;;;;;;4895856;29;20246;-44
2022/06/29 07:24:06;;;;;;;4.00;3.10;;;13.80;59.80;;;;;;4896092;29;20201;-43
2022/06/29 07:26:37;;;;;;;4.30;3.00;;;13.80;59.20;;;;;;4901696;29;20365;-45
2022/06/29 07:29:09;;;;;;;4.32;3.13;;;13.80;59.20;;;;;;4914597;29;20204;-45
2022/06/29 07:31:40;;;;;;;3.53;2.80;;;13.70;59.20;;;;;;4915026;29;20263;-44
2022/06/29 07:34:10;;;;;;;3.88;2.95;;;13.70;59.20;;;;;;4914855;29;20259;-44
2022/06/29 07:36:41;;;;;;;4.07;3.22;;;13.70;59.20;;;;;;4914597;29;20224;-43
2022/06/29 07:39:12;;;;;;;3.78;3.10;;;13.70;59.20;;;;;;4915684;29;20224;-44
2022/06/29 07:41:42;;;;;;;4.45;3.15;;;13.70;59.20;;;;;;4917045;29;20228;-43
2022/06/29 07:44:15;;;;;;;3.42;2.75;;;13.70;59.20;;;;;;4918399;29;20209;-45
2022/06/29 07:46:46;;;;;;;3.35;2.75;;;13.70;59.20;;;;;;4908485;29;20209;-46
2022/06/29 07:49:16;;;;;;;3.97;3.08;;;13.70;59.20;;;;;;4898749;29;20658;-44
2022/06/29 07:51:47;;;;;;;4.45;3.05;;;13.70;59.20;;;;;;4898585;29;20201;-46
2022/06/29 07:54:18;;;;;;;3.35;2.58;;;13.70;59.20;;;;;;4898532;29;20208;-43
2022/06/29 07:56:49;;;;;;;4.32;2.95;;;13.70;59.20;;;;;;4904555;29;20208;-46
2022/06/29 07:59:21;;;;;;;4.20;2.85;;;13.70;59.20;;;;;;4917309;29;20204;-44
2022/06/29 08:01:52;;;;;;;3.00;2.47;;;13.70;59.20;;;;;;4917184;29;20224;-44
2022/06/29 08:04:23;;;;;;;3.55;3.00;;;13.70;59.20;;;;;;4917610;29;20204;-46
2022/06/29 08:06:53;;;;;;;3.13;2.72;;;13.70;59.20;;;;;;4917645;29;20585;-44
2022/06/29 08:09:24;;;;;;;3.75;2.90;;;13.70;59.20;;;;;;4917302;29;20215;-44
2022/06/29 08:12:15;;;;;;;3.90;2.97;;;13.70;59.20;;;;;;4907617;29;20243;-47
2022/06/29 08:14:47;;;;;;;4.07;2.65;;;13.70;59.20;;;;;;4898716;29;20628;-45
2022/06/29 08:17:18;;;;;;;3.03;2.72;;;13.70;59.10;;;;;;4898307;29;20614;-45
2022/06/29 08:19:49;;;;;;;3.63;2.72;;;13.60;59.10;;;;;;4897393;29;20193;-46
2022/06/29 08:22:20;;;;;;;3.15;2.72;;;13.60;59.10;;;;;;4897862;29;20225;-47
2022/06/29 08:24:50;;;;;;;3.80;2.63;;;13.60;59.10;;;;;;4898266;29;20239;-43
2022/06/29 08:27:24;;;;;;;3.38;2.75;;;13.60;59.10;;;;;;4906712;29;20556;-45
2022/06/29 08:29:56;;;;;;;3.10;2.63;;;13.60;59.10;;;;;;4916780;29;20279;-46
2022/06/29 08:32:27;;;;;;;2.97;2.53;;;13.60;59.10;;;;;;4916686;29;20208;-45
2022/06/29 08:35:01;;;;;;;3.08;2.58;;;13.60;59.10;;;;;;4916579;29;20715;-44
2022/06/29 08:37:32;;;;;;;2.80;2.35;;;13.60;59.10;;;;;;4916834;29;20200;-43
2022/06/29 08:40:03;;;;;;;2.90;2.60;;;13.60;59.10;;;;;;4914595;29;20204;-46
2022/06/29 08:42:34;;;;;;;3.60;2.55;;;13.60;59.10;;;;;;4918528;23;20256;-51
2022/06/29 08:45:07;;;;;;;2.70;2.50;;;13.60;59.10;;;;;;4916413;29;20216;-49
2022/06/29 08:47:38;;;;;;;4.65;2.40;;;13.60;59.10;;;;;;4900330;29;20208;-49
2022/06/29 08:50:10;;;;;;;2.55;2.10;;;13.60;59.10;;;;;;4897200;29;20205;-49
2022/06/29 08:52:43;;;;;;;3.75;2.65;;;13.60;59.10;;;;;;4897717;29;20209;-50
2022/06/29 08:55:13;;;;;;;2.95;2.20;;;13.60;59.10;;;;;;4898061;29;20712;-49
2022/06/29 08:57:45;;;;;;;3.42;2.40;;;13.60;59.10;;;;;;4908017;29;20200;-49
2022/06/29 09:00:18;;;;;;;3.85;2.47;;;13.60;59.10;;;;;;4916260;29;20204;-49
2022/06/29 09:02:49;;;;;;;2.88;2.30;;;13.60;59.10;;;;;;4916543;29;20228;-49
2022/06/29 09:05:35;;;;;;;3.10;2.40;;;13.60;59.10;;;;;;4916128;29;20220;-50
2022/06/29 09:08:06;;;;;;;3.33;2.30;;;13.50;59.00;;;;;;4916271;29;20203;-49
2022/06/29 09:10:36;;;;;;;4.70;2.30;;;13.50;59.00;;;;;;4916524;29;20205;-50
2022/06/29 09:13:08;;;;;;;2.88;2.25;;;13.50;59.00;;;;;;4915663;29;20200;-48
2022/06/29 09:15:42;;;;;;;3.78;2.30;;;13.50;59.00;;;;;;4914805;29;20216;-50
2022/06/29 09:18:28;;;;;;;2.78;2.10;;;13.50;59.00;;;;;;4897000;29;20201;-50
2022/06/29 09:21:00;;;;;;;3.10;2.30;;;13.50;59.00;;;;;;4897353;29;20197;-48
2022/06/29 09:23:32;;;;;;;2.90;2.13;;;13.50;59.40;;;;;;4897304;29;20665;-49
2022/06/29 09:26:03;;;;;;;3.58;2.38;;;13.50;59.70;;;;;;4892970;29;20228;-50
2022/06/29 09:28:34;;;;;;;3.20;2.17;;;13.50;59.70;;;;;;4896993;29;20201;-49
2022/06/29 09:31:10;;;;;;;2.85;2.05;;;13.60;59.80;;;;;;4905959;29;20196;-48
2022/06/29 09:33:40;;;;;;;3.22;2.38;;;13.50;59.70;;;;;;4895595;29;20212;-51
2022/06/29 09:36:13;;;;;;;3.05;2.20;;;13.60;59.70;;;;;;4895742;29;20587;-50
2022/06/29 09:38:43;;;;;;;3.92;2.30;;;13.50;59.60;;;;;;4896548;29;20691;-50
2022/06/29 09:41:15;;;;;;;2.80;1.98;;;13.50;59.50;;;;;;4897034;29;20197;-49
2022/06/29 09:43:47;;;;;;;3.42;2.13;;;13.60;59.50;;;;;;4896607;29;20284;-49
2022/06/29 09:46:20;;;;;;;3.95;1.92;;;13.50;59.40;;;;;;4896343;29;20224;-51
2022/06/29 09:48:52;;;;;;;3.75;2.30;;;13.50;59.40;;;;;;4895935;29;20208;-49
2022/06/29 09:51:33;;;;;;;3.55;2.47;;;13.50;59.30;;;;;;4913083;29;20204;-49
2022/06/29 09:54:07;;;;;;;3.20;2.22;;;13.50;59.30;;;;;;4915212;29;20208;-48
2022/06/29 09:56:38;;;;;;;5.20;2.30;;;13.50;59.30;;;;;;4915204;29;20216;-48
2022/06/29 09:59:11;;;;;;;3.00;2.03;;;13.50;59.30;;;;;;4915240;29;20200;-48
2022/06/29 10:04:32;;;;;;;3.00;2.28;;;13.50;59.30;;;;;;4883508;29;20712;-48
2022/06/29 10:07:04;;;;;;;5.90;2.42;;;13.50;59.20;;;;;;4896099;29;20567;-49
2022/06/29 10:09:36;;;;;;;3.20;2.20;;;13.50;59.20;;;;;;4896067;29;20204;-49
2022/06/29 10:15:12;;;;;;;3.17;2.10;;;13.40;59.20;;;;;;4896156;29;20235;-50
2022/06/29 10:17:56;;;;;;;5.65;2.45;;;13.40;59.20;;;;;;4895650;29;20216;-50
2022/06/29 10:20:41;;;;;;;4.47;2.35;;;13.40;59.10;;;;;;4895160;29;20193;-49
2022/06/29 10:23:32;;;;;;;4.15;2.30;;;13.40;59.20;;;;;;4893789;29;20235;-50
2022/06/29 10:26:04;;;;;;;4.72;2.40;;;13.40;59.10;;;;;;4895296;29;20235;-52
2022/06/29 10:28:35;;;;;;;3.92;2.42;;;13.40;59.10;;;;;;4895417;29;20224;-49
2022/06/29 10:31:06;;;;;;;2.78;2.38;;;13.40;59.10;;;;;;4895288;29;20200;-54
2022/06/29 10:33:41;;;;;;;4.13;2.45;;;13.40;59.10;;;;;;4895939;29;20239;-53
2022/06/29 10:36:17;;;;;;;3.70;2.22;;;13.40;59.10;;;;;;4894463;29;20221;-53
2022/06/29 10:39:12;;;;;;;4.38;2.58;;;13.40;59.10;;;;;;4895812;29;20204;-48
2022/06/29 10:45:04;;;;;;;2.45;2.08;;;13.40;59.10;;;;;;4922924;23;20234;-44
2022/06/29 10:47:36;;;;;;;3.03;2.47;;;13.40;59.10;;;;;;4885406;29;20215;-44
2022/06/29 10:50:28;;;;;;;4.47;2.83;;;13.40;59.10;;;;;;4895512;29;20653;-44
2022/06/29 10:53:00;;;;;;;3.83;2.30;;;13.30;59.00;;;;;;4895934;29;20201;-43
2022/06/29 10:55:32;;;;;;;3.30;2.35;;;13.30;59.00;;;;;;4895649;29;20213;-44
2022/06/29 10:58:04;;;;;;;3.63;2.33;;;13.30;59.00;;;;;;4895327;29;20669;-43
2022/06/29 11:00:38;;;;;;;3.47;2.40;;;13.30;59.00;;;;;;4895685;29;20197;-43
2022/06/29 11:03:17;;;;;;;3.90;2.38;;;13.30;59.10;;;;;;4895706;29;20230;-43
2022/06/29 11:16:57;;;;;;;3.63;2.05;;;13.30;58.90;;;;;;4899408;29;20212;-46
2022/06/29 11:19:33;;;;;;;3.67;2.20;;;13.30;58.90;;;;;;4897045;29;20221;-46
2022/06/29 11:22:17;;;;;;;4.03;2.35;;;13.30;58.90;;;;;;4898529;29;20287;-44
2022/06/29 11:24:58;;;;;;;3.47;1.98;;;13.30;59.00;;;;;;4898947;29;20231;-46
2022/06/29 11:27:39;;;;;;;3.03;2.35;;;13.20;58.90;;;;;;4899565;29;20201;-44
2022/06/29 11:30:11;;;;;;;2.05;1.88;;;13.20;58.90;;;;;;4898418;29;20231;-45
2022/06/29 11:32:43;;;;;;;4.10;2.78;;;13.20;58.90;;;;;;4899337;29;20212;-46
2022/06/29 11:35:16;;;;;;;4.03;2.50;;;13.20;58.90;;;;;;4898407;29;20292;-46
2022/06/29 11:37:57;;;;;;;4.28;2.50;;;13.10;58.90;;;;;;4899118;29;20546;-45
2022/06/29 11:40:34;;;;;;;4.10;2.20;;;13.10;58.90;;;;;;4898505;29;20201;-44
2022/06/29 12:42:40;;;;;;;3.42;1.80;;;13.00;58.80;;;;;;5917134;23;20174;-52
2022/06/29 12:45:11;;;;;;;2.30;1.75;;;13.00;58.80;;;;;;4914324;29;20577;-49
2022/06/29 12:47:42;;;;;;;4.30;1.92;;;13.00;58.70;;;;;;4898621;29;20205;-51
2022/06/29 12:50:13;;;;;;;2.40;1.95;;;12.90;58.70;;;;;;4896609;29;20211;-49
2022/06/29 12:52:46;;;;;;;2.60;1.70;;;12.90;58.70;;;;;;4896326;29;20201;-51
2022/06/29 12:55:17;;;;;;;4.18;1.92;;;12.90;58.70;;;;;;4896807;29;20221;-49
2022/06/29 12:57:50;;;;;;;3.58;2.05;;;12.90;58.70;;;;;;4896029;29;20221;-50
2022/06/29 13:00:21;;;;;;;2.75;1.80;;;12.90;58.70;;;;;;4896559;29;20197;-50
2022/06/29 13:02:52;;;;;;;2.30;1.63;;;12.90;58.70;;;;;;4896224;29;20229;-52
2022/06/29 13:05:23;;;;;;;2.50;1.60;;;12.90;58.70;;;;;;4895960;29;20229;-54
2022/06/29 13:07:54;;;;;;;2.72;1.63;;;12.80;58.70;;;;;;4895921;29;20209;-52
2022/06/29 13:10:24;;;;;;;2.25;1.50;;;12.80;58.70;;;;;;4896088;29;20197;-51
2022/06/29 13:12:57;;;;;;;1.98;1.73;;;12.80;58.60;;;;;;4895916;29;20657;-51
2022/06/29 13:15:28;;;;;;;2.88;1.80;;;12.80;58.70;;;;;;4896062;29;20232;-54
2022/06/29 13:18:02;;;;;;;2.15;1.50;;;12.80;58.70;;;;;;4877424;29;20272;-50
2022/06/29 13:20:33;;;;;;;3.05;1.95;;;12.80;58.60;;;;;;4877157;29;20197;-51
2022/06/29 13:23:03;;;;;;;2.47;1.80;;;12.80;58.60;;;;;;4876814;29;20714;-52
2022/06/29 13:25:34;;;;;;;3.05;1.88;;;12.80;58.60;;;;;;4877961;29;20705;-52
2022/06/29 13:28:07;;;;;;;3.05;1.83;;;12.80;58.60;;;;;;4879807;29;20209;-54
2022/06/29 13:30:38;;;;;;;2.47;2.10;;;12.80;58.50;;;;;;4896408;29;20291;-53
2022/06/29 13:33:09;;;;;;;2.88;1.88;;;12.80;58.50;;;;;;4896179;29;20211;-51
2022/06/29 13:35:40;;;;;;;2.72;1.80;;;12.80;58.50;;;;;;4895474;29;20220;-54
2022/06/29 13:38:13;;;;;;;2.60;1.70;;;12.70;58.40;;;;;;4895553;29;20286;-49
2022/06/29 13:40:44;;;;;;;2.47;1.77;;;12.70;58.50;;;;;;4895591;29;20696;-50
2022/06/29 13:43:16;;;;;;;3.30;1.77;;;12.70;58.40;;;;;;4895804;29;20236;-49
2022/06/29 13:45:47;;;;;;;3.95;1.88;;;12.70;58.40;;;;;;4895235;29;20216;-47
2022/06/29 13:48:18;;;;;;;3.03;2.00;;;12.70;58.40;;;;;;4895167;29;20201;-48
2022/06/29 13:50:48;;;;;;;1.98;1.60;;;12.60;58.30;;;;;;4895149;29;20200;-47
2022/06/29 13:53:19;;;;;;;4.47;1.83;;;12.70;58.50;;;;;;4895274;29;20193;-49
2022/06/29 13:55:50;;;;;;;1.88;1.75;;;12.70;58.30;;;;;;4895467;29;20225;-51
2022/06/29 13:58:23;;;;;;;2.08;1.65;;;12.60;58.20;;;;;;4894850;29;20209;-53
2022/06/29 14:00:53;;;;;;;2.53;1.60;;;12.60;58.30;;;;;;4895262;29;20677;-51
2022/06/29 14:03:24;;;;;;;2.15;1.70;;;12.60;58.30;;;;;;4895176;29;20264;-48
2022/06/29 14:05:55;;;;;;;2.00;1.60;;;12.60;58.30;;;;;;4895082;29;20231;-52
2022/06/29 14:08:25;;;;;;;1.73;1.33;;;12.60;58.30;;;;;;4895072;29;20196;-48
2022/06/29 14:10:57;;;;;;;2.53;1.90;;;12.60;58.30;;;;;;4897377;29;20657;-51
2022/06/29 14:13:29;;;;;;;2.10;1.50;;;12.60;58.20;;;;;;4894768;29;20667;-50
2022/06/29 14:16:00;;;;;;;2.63;1.67;;;12.50;58.20;;;;;;4895300;29;20229;-52
2022/06/29 14:18:31;;;;;;;2.47;1.63;;;12.50;58.20;;;;;;4895220;29;20200;-51
2022/06/29 14:21:02;;;;;;;2.42;1.60;;;12.50;58.10;;;;;;4894836;29;20231;-50
2022/06/29 14:23:33;;;;;;;1.80;1.58;;;12.50;58.10;;;;;;4894743;29;20229;-49
2022/06/29 14:26:04;;;;;;;2.85;1.73;;;12.50;58.10;;;;;;4894882;29;20224;-50
2022/06/29 14:28:37;;;;;;;2.63;1.58;;;12.50;58.20;;;;;;4894733;29;20205;-50
2022/06/29 14:31:08;;;;;;;2.08;1.50;;;12.50;58.20;;;;;;4895131;29;20208;-50
2022/06/29 14:33:39;;;;;;;2.13;1.42;;;12.50;58.10;;;;;;4895274;29;20303;-50
2022/06/29 14:36:10;;;;;;;2.38;1.45;;;12.50;58.10;;;;;;4894588;29;20697;-49
2022/06/29 14:38:41;;;;;;;2.70;1.38;;;12.40;58.10;;;;;;4894933;29;20205;-50
2022/06/29 14:41:12;;;;;;;2.70;1.58;;;12.40;58.00;;;;;;4894569;29;20692;-50
2022/06/29 14:43:45;;;;;;;1.85;1.48;;;12.40;58.00;;;;;;4894680;29;20232;-51